sensor_id;sensor_type;location;lat;lon;timestamp;pressure;altitude;pressure_sealevel;temperature;humidity
13709;BME280;54933;51.908;7.730;2022-12-18T00:01:16;102230.81;;;21.61;51.29
13709;BME280;54933;51.908;7.730;2022-12-18T00:03:41;102217.47;;;21.59;51.36
13709;BME280;54933;51.908;7.730;2022-12-18T00:06:08;102230.81;;;21.61;51.20
13709;BME280;54933;51.908;7.730;2022-12-18T00:08:34;102227.28;;;21.60;51.29
13709;BME280;54933;51.908;7.730;2022-12-18T00:11:08;102227.28;;;21.60;51.49
13709;BME280;54933;51.908;7.730;2022-12-18T00:13:35;102224.59;;;21.60;51.24
13709;BME280;54933;51.908;7.730;2022-12-18T00:16:02;102224.59;;;21.60;51.42
13709;BME280;54933;51.908;7.730;2022-12-18T00:18:28;102235.41;;;21.60;51.07
13709;BME280;54933;51.908;7.730;2022-12-18T00:20:53;102237.25;;;21.60;51.11
13709;BME280;54933;51.908;7.730;2022-12-18T00:23:18;102238.94;;;21.61;51.19
13709;BME280;54933;51.908;7.730;2022-12-18T00:25:43;102238.94;;;21.61;51.39
13709;BME280;54933;51.908;7.730;2022-12-18T00:28:09;102233.53;;;21.61;51.14
13709;BME280;54933;51.908;7.730;2022-12-18T00:30:34;102230.00;;;21.60;51.22
13709;BME280;54933;51.908;7.730;2022-12-18T00:32:59;102234.56;;;21.60;51.15
13709;BME280;54933;51.908;7.730;2022-12-18T00:35:25;102234.56;;;21.60;51.14
13709;BME280;54933;51.908;7.730;2022-12-18T00:37:50;102223.72;;;21.60;51.05
13709;BME280;54933;51.908;7.730;2022-12-18T00:40:15;102225.59;;;21.59;51.15
13709;BME280;54933;51.908;7.730;2022-12-18T00:42:40;102232.84;;;21.58;51.37
13709;BME280;54933;51.908;7.730;2022-12-18T00:45:25;102239.13;;;21.59;51.13
13709;BME280;54933;51.908;7.730;2022-12-18T00:47:51;102231.00;;;21.59;51.08
13709;BME280;54933;51.908;7.730;2022-12-18T00:50:17;102231.00;;;21.59;51.18
13709;BME280;54933;51.908;7.730;2022-12-18T00:52:42;102227.28;;;21.60;51.24
13709;BME280;54933;51.908;7.730;2022-12-18T00:55:08;102224.59;;;21.60;51.15
13709;BME280;54933;51.908;7.730;2022-12-18T00:57:34;102229.16;;;21.60;51.02
13709;BME280;54933;51.908;7.730;2022-12-18T00:59:59;102238.94;;;21.61;51.06
13709;BME280;54933;51.908;7.730;2022-12-18T01:02:24;102237.25;;;21.60;51.07
13709;BME280;54933;51.908;7.730;2022-12-18T01:04:50;102239.78;;;21.61;51.15
13709;BME280;54933;51.908;7.730;2022-12-18T01:07:15;102223.72;;;21.60;51.12
13709;BME280;54933;51.908;7.730;2022-12-18T01:09:40;102222.03;;;21.58;50.91
13709;BME280;54933;51.908;7.730;2022-12-18T01:12:06;102222.88;;;21.59;51.01
13709;BME280;54933;51.908;7.730;2022-12-18T01:14:31;102220.00;;;21.61;51.12
13709;BME280;54933;51.908;7.730;2022-12-18T01:16:56;102223.72;;;21.60;50.78
13709;BME280;54933;51.908;7.730;2022-12-18T01:19:22;102223.72;;;21.60;50.96
13709;BME280;54933;51.908;7.730;2022-12-18T01:21:47;102222.03;;;21.58;50.26
13709;BME280;54933;51.908;7.730;2022-12-18T01:24:12;102222.03;;;21.58;50.92
13709;BME280;54933;51.908;7.730;2022-12-18T01:26:37;102218.31;;;21.60;50.85
13709;BME280;54933;51.908;7.730;2022-12-18T01:29:03;102222.03;;;21.58;51.04
13709;BME280;54933;51.908;7.730;2022-12-18T01:31:30;102220.38;;;21.58;51.12
13709;BME280;54933;51.908;7.730;2022-12-18T01:33:57;102216.63;;;21.58;51.07
13709;BME280;54933;51.908;7.730;2022-12-18T01:36:27;102212.25;;;21.58;50.87
13709;BME280;54933;51.908;7.730;2022-12-18T01:38:55;102213.91;;;21.58;50.97
13709;BME280;54933;51.908;7.730;2022-12-18T01:41:23;102219.34;;;21.58;51.03
13709;BME280;54933;51.908;7.730;2022-12-18T01:43:54;102220.19;;;21.59;50.82
13709;BME280;54933;51.908;7.730;2022-12-18T01:46:22;102217.66;;;21.58;50.96
13709;BME280;54933;51.908;7.730;2022-12-18T01:48:49;102213.09;;;21.58;50.89
13709;BME280;54933;51.908;7.730;2022-12-18T01:51:16;102217.47;;;21.59;50.76
13709;BME280;54933;51.908;7.730;2022-12-18T01:53:43;102222.03;;;21.58;50.74
13709;BME280;54933;51.908;7.730;2022-12-18T01:56:12;102212.91;;;21.60;50.75
13709;BME280;54933;51.908;7.730;2022-12-18T02:01:14;102221.22;;;21.58;50.68
13709;BME280;54933;51.908;7.730;2022-12-18T02:03:43;102235.56;;;21.58;50.71
13709;BME280;54933;51.908;7.730;2022-12-18T02:06:15;102238.25;;;21.58;50.63
13709;BME280;54933;51.908;7.730;2022-12-18T02:09:11;102228.47;;;21.58;50.84
13709;BME280;54933;51.908;7.730;2022-12-18T02:14:44;102223.06;;;21.58;50.69
13709;BME280;54933;51.908;7.730;2022-12-18T02:17:22;102225.78;;;21.58;50.84
13709;BME280;54933;51.908;7.730;2022-12-18T02:28:30;102204.13;;;21.58;50.80
13709;BME280;54933;51.908;7.730;2022-12-18T02:30:59;102214.97;;;21.58;50.87
13709;BME280;54933;51.908;7.730;2022-12-18T02:33:27;102206.84;;;21.58;50.70
13709;BME280;54933;51.908;7.730;2022-12-18T02:35:55;102189.94;;;21.55;50.45
13709;BME280;54933;51.908;7.730;2022-12-18T02:38:23;102187.06;;;21.57;50.48
13709;BME280;54933;51.908;7.730;2022-12-18T02:40:51;102188.94;;;21.57;50.65
13709;BME280;54933;51.908;7.730;2022-12-18T02:43:18;102202.47;;;21.57;50.71
13709;BME280;54933;51.908;7.730;2022-12-18T02:45:55;102204.31;;;21.56;50.76
13709;BME280;54933;51.908;7.730;2022-12-18T02:48:29;102203.28;;;21.57;50.27
13709;BME280;54933;51.908;7.730;2022-12-18T02:53:34;102201.44;;;21.58;50.43
13709;BME280;54933;51.908;7.730;2022-12-18T02:56:14;102197.88;;;21.57;50.13
13709;BME280;54933;51.908;7.730;2022-12-18T03:04:29;102207.03;;;21.56;50.42
13709;BME280;54933;51.908;7.730;2022-12-18T03:06:58;102204.31;;;21.56;50.20
13709;BME280;54933;51.908;7.730;2022-12-18T03:09:29;102204.13;;;21.58;49.98
13709;BME280;54933;51.908;7.730;2022-12-18T03:12:04;102204.13;;;21.58;50.04
13709;BME280;54933;51.908;7.730;2022-12-18T03:14:56;102190.81;;;21.56;50.14
13709;BME280;54933;51.908;7.730;2022-12-18T03:17:27;102179.97;;;21.56;50.00
13709;BME280;54933;51.908;7.730;2022-12-18T03:19:54;102193.31;;;21.58;49.94
13709;BME280;54933;51.908;7.730;2022-12-18T03:22:23;102194.53;;;21.55;50.17
13709;BME280;54933;51.908;7.730;2022-12-18T03:24:53;102196.41;;;21.54;50.22
13709;BME280;54933;51.908;7.730;2022-12-18T03:27:20;102197.06;;;21.57;49.97
13709;BME280;54933;51.908;7.730;2022-12-18T03:30:01;102187.25;;;21.55;49.94
13709;BME280;54933;51.908;7.730;2022-12-18T03:32:38;102195.38;;;21.55;50.24
13709;BME280;54933;51.908;7.730;2022-12-18T03:35:05;102207.03;;;21.56;50.24
13709;BME280;54933;51.908;7.730;2022-12-18T03:37:32;102202.84;;;21.53;50.18
13709;BME280;54933;51.908;7.730;2022-12-18T03:39:58;102200.78;;;21.55;50.00
13709;BME280;54933;51.908;7.730;2022-12-18T03:42:36;102211.59;;;21.55;50.24
13709;BME280;54933;51.908;7.730;2022-12-18T03:45:08;102204.50;;;21.54;50.22
13709;BME280;54933;51.908;7.730;2022-12-18T03:48:00;102201.81;;;21.54;50.01
13709;BME280;54933;51.908;7.730;2022-12-18T03:53:19;102209.94;;;21.54;49.70
13709;BME280;54933;51.908;7.730;2022-12-18T03:55:49;102205.56;;;21.53;49.93
13709;BME280;54933;51.908;7.730;2022-12-18T03:58:18;102201.16;;;21.52;49.96
13709;BME280;54933;51.908;7.730;2022-12-18T04:00:45;102195.75;;;21.52;49.91
13709;BME280;54933;51.908;7.730;2022-12-18T04:03:13;102196.59;;;21.53;49.99
13709;BME280;54933;51.908;7.730;2022-12-18T04:05:40;102197.44;;;21.53;49.81
13709;BME280;54933;51.908;7.730;2022-12-18T04:08:07;102185.78;;;21.53;50.00
13709;BME280;54933;51.908;7.730;2022-12-18T04:10:32;102181.22;;;21.53;49.82
13709;BME280;54933;51.908;7.730;2022-12-18T04:12:58;102182.03;;;21.54;50.14
13709;BME280;54933;51.908;7.730;2022-12-18T04:15:24;102190.34;;;21.52;49.91
13709;BME280;54933;51.908;7.730;2022-12-18T04:17:50;102189.31;;;21.53;49.86
13709;BME280;54933;51.908;7.730;2022-12-18T04:20:15;102194.72;;;21.53;49.80
13709;BME280;54933;51.908;7.730;2022-12-18T04:22:41;102192.03;;;21.53;50.07
13709;BME280;54933;51.908;7.730;2022-12-18T04:25:06;102186.63;;;21.53;50.09
13709;BME280;54933;51.908;7.730;2022-12-18T04:27:32;102186.63;;;21.53;49.99
13709;BME280;54933;51.908;7.730;2022-12-18T04:29:57;102180.38;;;21.53;49.89
13709;BME280;54933;51.908;7.730;2022-12-18T04:32:22;102183.06;;;21.53;49.91
13709;BME280;54933;51.908;7.730;2022-12-18T04:34:48;102187.44;;;21.54;49.91
13709;BME280;54933;51.908;7.730;2022-12-18T04:37:13;102185.78;;;21.53;50.03
13709;BME280;54933;51.908;7.730;2022-12-18T04:39:38;102180.38;;;21.53;50.04
13709;BME280;54933;51.908;7.730;2022-12-18T04:42:04;102180.38;;;21.53;50.11
13709;BME280;54933;51.908;7.730;2022-12-18T04:44:29;102176.81;;;21.52;50.34
13709;BME280;54933;51.908;7.730;2022-12-18T04:46:54;102177.00;;;21.51;50.22
13709;BME280;54933;51.908;7.730;2022-12-18T04:49:20;102177.00;;;21.51;50.19
13709;BME280;54933;51.908;7.730;2022-12-18T04:51:46;102181.56;;;21.50;50.16
13709;BME280;54933;51.908;7.730;2022-12-18T04:54:11;102182.59;;;21.49;50.35
13709;BME280;54933;51.908;7.730;2022-12-18T04:56:36;102179.88;;;21.49;50.39
13709;BME280;54933;51.908;7.730;2022-12-18T04:59:01;102179.03;;;21.49;50.47
13709;BME280;54933;51.908;7.730;2022-12-18T05:01:27;102168.41;;;21.47;50.51
13709;BME280;54933;51.908;7.730;2022-12-18T05:03:52;102174.47;;;21.49;50.50
13709;BME280;54933;51.908;7.730;2022-12-18T05:06:17;102173.63;;;21.49;50.06
13709;BME280;54933;51.908;7.730;2022-12-18T05:08:43;102176.53;;;21.47;50.25
13709;BME280;54933;51.908;7.730;2022-12-18T05:11:11;102166.56;;;21.48;49.99
13709;BME280;54933;51.908;7.730;2022-12-18T05:13:36;102170.09;;;21.48;50.27
13709;BME280;54933;51.908;7.730;2022-12-18T05:16:03;102174.66;;;21.48;50.29
13709;BME280;54933;51.908;7.730;2022-12-18T05:18:29;102179.03;;;21.49;50.04
13709;BME280;54933;51.908;7.730;2022-12-18T05:20:54;102178.22;;;21.48;50.52
13709;BME280;54933;51.908;7.730;2022-12-18T05:23:20;102173.63;;;21.49;50.42
13709;BME280;54933;51.908;7.730;2022-12-18T05:25:52;102177.19;;;21.49;50.14
13709;BME280;54933;51.908;7.730;2022-12-18T05:28:17;102170.09;;;21.48;50.05
13709;BME280;54933;51.908;7.730;2022-12-18T05:30:47;102168.41;;;21.47;50.24
13709;BME280;54933;51.908;7.730;2022-12-18T05:33:12;102167.41;;;21.48;50.15
13709;BME280;54933;51.908;7.730;2022-12-18T05:35:38;102176.53;;;21.47;50.20
13709;BME280;54933;51.908;7.730;2022-12-18T05:38:03;102178.22;;;21.48;50.12
13709;BME280;54933;51.908;7.730;2022-12-18T05:40:28;102182.78;;;21.48;50.25
13709;BME280;54933;51.908;7.730;2022-12-18T05:42:53;102192.75;;;21.47;50.00
13709;BME280;54933;51.908;7.730;2022-12-18T05:45:19;102187.34;;;21.47;50.10
13709;BME280;54933;51.908;7.730;2022-12-18T05:47:45;102193.59;;;21.48;50.29
13709;BME280;54933;51.908;7.730;2022-12-18T05:50:10;102191.75;;;21.48;50.22
13709;BME280;54933;51.908;7.730;2022-12-18T05:52:35;102174.84;;;21.46;50.29
13709;BME280;54933;51.908;7.730;2022-12-18T05:55:01;102176.53;;;21.47;50.17
13709;BME280;54933;51.908;7.730;2022-12-18T05:57:26;102166.56;;;21.48;50.94
13709;BME280;54933;51.908;7.730;2022-12-18T05:59:51;102165.69;;;21.47;50.43
13709;BME280;54933;51.908;7.730;2022-12-18T06:02:17;102175.50;;;21.48;50.11
13709;BME280;54933;51.908;7.730;2022-12-18T06:04:42;102175.72;;;21.47;50.30
13709;BME280;54933;51.908;7.730;2022-12-18T06:07:07;102178.22;;;21.48;50.41
13709;BME280;54933;51.908;7.730;2022-12-18T06:09:32;102184.63;;;21.47;49.94
13709;BME280;54933;51.908;7.730;2022-12-18T06:11:58;102183.81;;;21.47;50.20
13709;BME280;54933;51.908;7.730;2022-12-18T06:14:23;102189.38;;;21.45;50.31
13709;BME280;54933;51.908;7.730;2022-12-18T06:16:50;102187.53;;;21.46;50.12
13709;BME280;54933;51.908;7.730;2022-12-18T06:19:16;102196.50;;;21.46;50.10
13709;BME280;54933;51.908;7.730;2022-12-18T06:21:42;102198.53;;;21.44;50.18
13709;BME280;54933;51.908;7.730;2022-12-18T06:24:07;102202.91;;;21.45;49.59
13709;BME280;54933;51.908;7.730;2022-12-18T06:26:33;102211.00;;;21.45;50.16
13709;BME280;54933;51.908;7.730;2022-12-18T06:28:59;102216.44;;;21.45;50.20
13709;BME280;54933;51.908;7.730;2022-12-18T06:31:25;102210.88;;;21.47;50.37
13709;BME280;54933;51.908;7.730;2022-12-18T06:33:50;102221.69;;;21.47;50.20
13709;BME280;54933;51.908;7.730;2022-12-18T06:36:16;102224.38;;;21.47;50.30
13709;BME280;54933;51.908;7.730;2022-12-18T06:38:42;102220.81;;;21.46;50.33
13709;BME280;54933;51.908;7.730;2022-12-18T06:41:14;102223.53;;;21.46;50.35
13709;BME280;54933;51.908;7.730;2022-12-18T06:43:39;102222.69;;;21.46;50.13
13709;BME280;54933;51.908;7.730;2022-12-18T06:46:05;102212.72;;;21.46;50.09
13709;BME280;54933;51.908;7.730;2022-12-18T06:48:31;102210.19;;;21.45;50.02
13709;BME280;54933;51.908;7.730;2022-12-18T06:50:56;102211.88;;;21.46;50.15
13709;BME280;54933;51.908;7.730;2022-12-18T06:53:22;102211.88;;;21.46;50.45
13709;BME280;54933;51.908;7.730;2022-12-18T06:55:47;102216.28;;;21.47;50.15
13709;BME280;54933;51.908;7.730;2022-12-18T06:58:13;102208.16;;;21.47;49.98
13709;BME280;54933;51.908;7.730;2022-12-18T07:00:38;102207.31;;;21.46;50.37
13709;BME280;54933;51.908;7.730;2022-12-18T07:03:03;102212.91;;;21.45;50.00
13709;BME280;54933;51.908;7.730;2022-12-18T07:05:29;102218.13;;;21.46;50.10
13709;BME280;54933;51.908;7.730;2022-12-18T07:07:54;102212.72;;;21.46;49.98
13709;BME280;54933;51.908;7.730;2022-12-18T07:10:19;102218.13;;;21.46;50.10
13709;BME280;54933;51.908;7.730;2022-12-18T07:12:45;102207.31;;;21.46;50.01
13709;BME280;54933;51.908;7.730;2022-12-18T07:15:10;102210.88;;;21.47;50.26
13709;BME280;54933;51.908;7.730;2022-12-18T07:17:35;102211.88;;;21.46;50.33
13709;BME280;54933;51.908;7.730;2022-12-18T07:20:00;102201.06;;;21.46;50.16
13709;BME280;54933;51.908;7.730;2022-12-18T07:22:26;102200.88;;;21.47;50.25
13709;BME280;54933;51.908;7.730;2022-12-18T07:24:52;102206.28;;;21.47;50.26
13709;BME280;54933;51.908;7.730;2022-12-18T07:27:17;102202.75;;;21.47;50.21
13709;BME280;54933;51.908;7.730;2022-12-18T07:29:42;102212.72;;;21.46;50.34
13709;BME280;54933;51.908;7.730;2022-12-18T07:32:07;102203.94;;;21.44;50.13
13709;BME280;54933;51.908;7.730;2022-12-18T07:34:33;102204.31;;;21.41;50.10
13709;BME280;54933;51.908;7.730;2022-12-18T07:36:58;102197.25;;;21.40;50.09
13709;BME280;54933;51.908;7.730;2022-12-18T07:39:24;102189.28;;;21.39;49.92
13709;BME280;54933;51.908;7.730;2022-12-18T07:41:49;102197.59;;;21.37;50.02
13709;BME280;54933;51.908;7.730;2022-12-18T07:44:34;102190.50;;;21.36;50.25
13709;BME280;54933;51.908;7.730;2022-12-18T07:47:00;102194.25;;;21.35;50.31
13709;BME280;54933;51.908;7.730;2022-12-18T07:49:25;102192.53;;;21.34;50.37
13709;BME280;54933;51.908;7.730;2022-12-18T07:51:50;102180.06;;;21.33;50.48
13709;BME280;54933;51.908;7.730;2022-12-18T07:54:16;102176.31;;;21.34;50.54
13709;BME280;54933;51.908;7.730;2022-12-18T07:56:41;102170.09;;;21.34;50.54
13709;BME280;54933;51.908;7.730;2022-12-18T07:59:06;102170.91;;;21.34;50.64
13709;BME280;54933;51.908;7.730;2022-12-18T08:01:33;102178.03;;;21.35;50.56
13709;BME280;54933;51.908;7.730;2022-12-18T08:03:58;102181.34;;;21.37;50.73
13709;BME280;54933;51.908;7.730;2022-12-18T08:06:23;102186.75;;;21.37;50.84
13709;BME280;54933;51.908;7.730;2022-12-18T08:08:53;102181.16;;;21.39;50.62
13709;BME280;54933;51.908;7.730;2022-12-18T08:11:19;102176.63;;;21.39;50.93
13709;BME280;54933;51.908;7.730;2022-12-18T08:13:44;102184.53;;;21.41;50.81
13709;BME280;54933;51.908;7.730;2022-12-18T08:16:09;102182.69;;;21.41;50.86
13709;BME280;54933;51.908;7.730;2022-12-18T08:18:36;102183.53;;;21.42;50.78
13709;BME280;54933;51.908;7.730;2022-12-18T08:21:10;102187.91;;;21.43;50.59
13709;BME280;54933;51.908;7.730;2022-12-18T08:23:35;102192.28;;;21.44;50.64
13709;BME280;54933;51.908;7.730;2022-12-18T08:26:01;102190.59;;;21.43;50.59
13709;BME280;54933;51.908;7.730;2022-12-18T08:28:26;102184.16;;;21.44;50.49
13709;BME280;54933;51.908;7.730;2022-12-18T08:30:52;102189.56;;;21.44;50.58
13709;BME280;54933;51.908;7.730;2022-12-18T08:33:17;102183.16;;;21.45;50.40
13709;BME280;54933;51.908;7.730;2022-12-18T08:35:42;102170.81;;;21.42;50.18
13709;BME280;54933;51.908;7.730;2022-12-18T08:38:08;102171.88;;;21.41;50.46
13709;BME280;54933;51.908;7.730;2022-12-18T08:40:33;102175.59;;;21.40;50.53
13709;BME280;54933;51.908;7.730;2022-12-18T08:42:58;102161.44;;;21.38;50.48
13709;BME280;54933;51.908;7.730;2022-12-18T08:45:42;102154.31;;;21.37;50.28
13709;BME280;54933;51.908;7.730;2022-12-18T08:48:08;102147.25;;;21.36;50.38
13709;BME280;54933;51.908;7.730;2022-12-18T08:50:33;102149.94;;;21.36;50.15
13709;BME280;54933;51.908;7.730;2022-12-18T08:52:58;102146.38;;;21.36;50.32
13709;BME280;54933;51.908;7.730;2022-12-18T08:55:23;102154.50;;;21.36;50.47
13709;BME280;54933;51.908;7.730;2022-12-18T08:57:49;102152.66;;;21.36;50.60
13709;BME280;54933;51.908;7.730;2022-12-18T09:00:15;102145.56;;;21.35;50.60
13709;BME280;54933;51.908;7.730;2022-12-18T09:02:40;102147.44;;;21.35;50.97
13709;BME280;54933;51.908;7.730;2022-12-18T09:05:06;102150.97;;;21.35;50.60
13709;BME280;54933;51.908;7.730;2022-12-18T09:07:31;102143.88;;;21.34;50.79
13709;BME280;54933;51.908;7.730;2022-12-18T09:09:57;102151.31;;;21.32;50.74
13709;BME280;54933;51.908;7.730;2022-12-18T09:12:22;102149.28;;;21.34;50.70
13709;BME280;54933;51.908;7.730;2022-12-18T09:14:47;102146.38;;;21.36;51.12
13709;BME280;54933;51.908;7.730;2022-12-18T09:17:13;102142.50;;;21.38;51.77
13709;BME280;54933;51.908;7.730;2022-12-18T09:19:38;102143.16;;;21.40;52.07
13709;BME280;54933;51.908;7.730;2022-12-18T09:22:03;102150.59;;;21.38;52.34
13709;BME280;54933;51.908;7.730;2022-12-18T09:24:28;102147.91;;;21.38;52.70
13709;BME280;54933;51.908;7.730;2022-12-18T09:26:54;102153.31;;;21.38;52.94
13709;BME280;54933;51.908;7.730;2022-12-18T09:29:20;102158.72;;;21.38;53.28
13709;BME280;54933;51.908;7.730;2022-12-18T09:31:46;102161.44;;;21.38;53.20
13709;BME280;54933;51.908;7.730;2022-12-18T09:34:11;102172.06;;;21.40;53.57
13709;BME280;54933;51.908;7.730;2022-12-18T09:36:37;102172.91;;;21.40;53.48
13709;BME280;54933;51.908;7.730;2022-12-18T09:39:02;102164.59;;;21.42;53.70
13709;BME280;54933;51.908;7.730;2022-12-18T09:41:39;102161.03;;;21.41;53.45
13709;BME280;54933;51.908;7.730;2022-12-18T09:44:27;102164.78;;;21.40;53.43
13709;BME280;54933;51.908;7.730;2022-12-18T09:47:05;102156.19;;;21.37;53.25
13709;BME280;54933;51.908;7.730;2022-12-18T09:49:37;102159.72;;;21.37;53.26
13709;BME280;54933;51.908;7.730;2022-12-18T09:52:09;102164.13;;;21.38;53.22
13709;BME280;54933;51.908;7.730;2022-12-18T09:54:39;102159.72;;;21.37;53.04
13709;BME280;54933;51.908;7.730;2022-12-18T09:57:05;102158.44;;;21.33;52.90
13709;BME280;54933;51.908;7.730;2022-12-18T09:59:34;102152.38;;;21.31;52.97
13709;BME280;54933;51.908;7.730;2022-12-18T10:02:21;102145.75;;;21.34;52.94
13709;BME280;54933;51.908;7.730;2022-12-18T10:05:14;102136.44;;;21.36;53.10
13709;BME280;54933;51.908;7.730;2022-12-18T10:10:53;102118.16;;;21.38;53.78
13709;BME280;54933;51.908;7.730;2022-12-18T10:13:33;102126.94;;;21.40;53.61
13709;BME280;54933;51.908;7.730;2022-12-18T10:16:17;102121.53;;;21.40;53.95
13709;BME280;54933;51.908;7.730;2022-12-18T10:21:20;102104.06;;;21.43;53.83
13709;BME280;54933;51.908;7.730;2022-12-18T10:23:55;102101.19;;;21.44;53.90
13709;BME280;54933;51.908;7.730;2022-12-18T10:26:25;102105.53;;;21.45;53.77
13709;BME280;54933;51.908;7.730;2022-12-18T10:28:51;102093.06;;;21.44;53.65
13709;BME280;54933;51.908;7.730;2022-12-18T10:31:21;102098.09;;;21.47;53.47
13709;BME280;54933;51.908;7.730;2022-12-18T10:33:46;102086.47;;;21.47;53.68
13709;BME280;54933;51.908;7.730;2022-12-18T10:36:12;102085.59;;;21.46;54.09
13709;BME280;54933;51.908;7.730;2022-12-18T10:38:37;102082.25;;;21.44;54.09
13709;BME280;54933;51.908;7.730;2022-12-18T10:41:24;102072.47;;;21.43;54.31
13709;BME280;54933;51.908;7.730;2022-12-18T10:44:23;102066.41;;;21.41;54.32
13709;BME280;54933;51.908;7.730;2022-12-18T10:46:53;102062.66;;;21.42;54.33
13709;BME280;54933;51.908;7.730;2022-12-18T10:49:27;102063.50;;;21.43;54.41
13709;BME280;54933;51.908;7.730;2022-12-18T10:52:19;102057.91;;;21.44;54.46
13709;BME280;54933;51.908;7.730;2022-12-18T10:54:50;102051.66;;;21.44;54.49
13709;BME280;54933;51.908;7.730;2022-12-18T10:57:29;102042.34;;;21.46;54.38
13709;BME280;54933;51.908;7.730;2022-12-18T10:59:57;102032.19;;;21.48;54.48
13709;BME280;54933;51.908;7.730;2022-12-18T11:02:33;102017.63;;;21.49;54.80
13709;BME280;54933;51.908;7.730;2022-12-18T11:04:59;102030.09;;;21.50;54.89
13709;BME280;54933;51.908;7.730;2022-12-18T11:07:24;102030.75;;;21.52;55.21
13709;BME280;54933;51.908;7.730;2022-12-18T11:10:00;102016.38;;;21.52;54.72
13709;BME280;54933;51.908;7.730;2022-12-18T11:12:27;102012.88;;;21.51;54.65
13709;BME280;54933;51.908;7.730;2022-12-18T11:14:55;102016.38;;;21.52;54.81
13709;BME280;54933;51.908;7.730;2022-12-18T11:17:28;102029.75;;;21.53;54.67
13709;BME280;54933;51.908;7.730;2022-12-18T11:19:59;102017.88;;;21.54;54.76
13709;BME280;54933;51.908;7.730;2022-12-18T11:22:26;102019.75;;;21.54;55.14
13709;BME280;54933;51.908;7.730;2022-12-18T11:27:37;102019.56;;;21.55;54.94
13709;BME280;54933;51.908;7.730;2022-12-18T11:30:20;102011.44;;;21.55;55.01
13709;BME280;54933;51.908;7.730;2022-12-18T11:32:53;102007.72;;;21.57;55.11
13709;BME280;54933;51.908;7.730;2022-12-18T11:38:22;101987.75;;;21.58;55.06
13709;BME280;54933;51.908;7.730;2022-12-18T11:40:55;101980.69;;;21.57;55.11
13709;BME280;54933;51.908;7.730;2022-12-18T11:43:47;101980.69;;;21.57;55.06
13709;BME280;54933;51.908;7.730;2022-12-18T11:46:19;101974.22;;;21.58;54.49
13709;BME280;54933;51.908;7.730;2022-12-18T11:48:58;101974.22;;;21.58;54.85
13709;BME280;54933;51.908;7.730;2022-12-18T11:51:34;101967.78;;;21.58;54.76
13709;BME280;54933;51.908;7.730;2022-12-18T11:54:12;101972.19;;;21.60;54.80
13709;BME280;54933;51.908;7.730;2022-12-18T11:57:07;101966.56;;;21.61;54.53
13709;BME280;54933;51.908;7.730;2022-12-18T11:59:48;101965.72;;;21.61;54.49
13709;BME280;54933;51.908;7.730;2022-12-18T12:08:17;101962.00;;;21.62;54.51
13709;BME280;54933;51.908;7.730;2022-12-18T12:11:12;101955.75;;;21.61;54.54
13709;BME280;54933;51.908;7.730;2022-12-18T12:17:15;101933.66;;;21.58;54.82
13709;BME280;54933;51.908;7.730;2022-12-18T12:22:30;101941.97;;;21.56;54.53
13709;BME280;54933;51.908;7.730;2022-12-18T12:25:13;101937.78;;;21.53;54.82
13709;BME280;54933;51.908;7.730;2022-12-18T12:27:55;101943.19;;;21.53;54.93
13709;BME280;54933;51.908;7.730;2022-12-18T12:30:44;101936.94;;;21.53;54.81
13709;BME280;54933;51.908;7.730;2022-12-18T12:33:40;101931.53;;;21.53;54.87
13709;BME280;54933;51.908;7.730;2022-12-18T12:38:59;101924.44;;;21.52;55.02
13709;BME280;54933;51.908;7.730;2022-12-18T12:41:30;101919.88;;;21.52;55.07
13709;BME280;54933;51.908;7.730;2022-12-18T12:44:20;101903.00;;;21.50;54.60
13709;BME280;54933;51.908;7.730;2022-12-18T12:46:48;101896.56;;;21.51;54.52
13709;BME280;54933;51.908;7.730;2022-12-18T12:49:17;101877.00;;;21.49;54.87
13709;BME280;54933;51.908;7.730;2022-12-18T12:51:45;101885.75;;;21.51;54.78
13709;BME280;54933;51.908;7.730;2022-12-18T12:54:17;101879.50;;;21.51;54.85
13709;BME280;54933;51.908;7.730;2022-12-18T12:56:56;101881.16;;;21.52;55.03
13709;BME280;54933;51.908;7.730;2022-12-18T13:02:30;101874.94;;;21.51;54.74
13709;BME280;54933;51.908;7.730;2022-12-18T13:05:26;101875.94;;;21.50;54.77
13709;BME280;54933;51.908;7.730;2022-12-18T13:07:59;101869.53;;;21.51;55.11
13709;BME280;54933;51.908;7.730;2022-12-18T13:10:31;101877.84;;;21.50;54.85
13709;BME280;54933;51.908;7.730;2022-12-18T13:17:47;101869.13;;;21.54;55.34
13709;BME280;54933;51.908;7.730;2022-12-18T13:20:14;101860.16;;;21.54;55.14
13709;BME280;54933;51.908;7.730;2022-12-18T13:22:48;101853.09;;;21.53;54.92
13709;BME280;54933;51.908;7.730;2022-12-18T13:25:36;101856.66;;;21.53;55.42
13709;BME280;54933;51.908;7.730;2022-12-18T13:28:13;101845.84;;;21.53;55.13
13709;BME280;54933;51.908;7.730;2022-12-18T13:30:46;101846.66;;;21.54;55.27
13709;BME280;54933;51.908;7.730;2022-12-18T13:38:24;101846.44;;;21.55;55.11
13709;BME280;54933;51.908;7.730;2022-12-18T13:40:59;101842.09;;;21.54;55.32
13709;BME280;54933;51.908;7.730;2022-12-18T13:43:45;101844.78;;;21.54;55.12
13709;BME280;54933;51.908;7.730;2022-12-18T13:46:42;101843.28;;;21.52;55.08
13709;BME280;54933;51.908;7.730;2022-12-18T13:51:55;101849.56;;;21.52;54.94
13709;BME280;54933;51.908;7.730;2022-12-18T13:54:30;101844.16;;;21.52;55.09
13709;BME280;54933;51.908;7.730;2022-12-18T13:56:57;101840.44;;;21.53;55.23
13709;BME280;54933;51.908;7.730;2022-12-18T13:59:34;101836.69;;;21.54;55.35
13709;BME280;54933;51.908;7.730;2022-12-18T14:02:09;101831.28;;;21.54;55.33
13709;BME280;54933;51.908;7.730;2022-12-18T14:04:37;101840.44;;;21.53;55.13
13709;BME280;54933;51.908;7.730;2022-12-18T14:07:05;101842.09;;;21.54;55.31
13709;BME280;54933;51.908;7.730;2022-12-18T14:09:37;101833.78;;;21.56;55.28